Hlavní strana
METAR-TAF:

METAR-TAF

Letiště :

Voroněž, Rusko

zeměpisná šířka: 51-39N, zeměpisná délka: 039-15E, výška: 154 m

Aktuální stav počasí

Zpráva byla vytvořena před 31 minutami, v 15:00 UTC
Jižní vítr 8 kt
Teplota 12°C
Vlhkost vzduchu 58%
Tlak 1006 hPa
Viditelnost 10 km a více
Žádná oblačnost pod 1500 m, nevyskytují se cumulonimby.

METAR: UUOO 241500Z 17004MPS CAVOK 12/04 Q1006 R12/010070 NOSIG RMK QFE741

Čas: 18:31 (15:31 UTC)

Předpověď počasí

Zpráva byla vytvořena před 1 hodinou a 31 minutami, v 14:00 UTC
Předpověď platná od 24 v 15 UTC do 24 v 24 UTC
Jižní vítr 6 kt
Viditelnost: 6000 m
Oblačno až skoro zataženo ve výšce 1600 ft, Cumulonimbus.
Dočasný
od 24 v 19 UTC do 24 v 24 UTC
Viditelnost: 1800 m
Oblačno až skoro zataženo ve výšce 600 ft
Oblačno až skoro zataženo ve výšce 1600 ft, Cumulonimbus.
dešťové přeháňky, kouřmo

TAF: UUOO 241400Z 2415/2424 18003MPS 6000 BKN016CB TEMPO 2419/2424 1800 SHRA BR BKN006 BKN016CB

Stav a předpovědi počasí z více než 4 000 letišť (zprávy METAR a TAF).

Červené a žluté tečky na mapě představují dostupné meteorologické stanice.

Když kurzor umístíte na tečku, zobrazí se název stanice.

Pak kliknutím zobrazíte stav a předpověď počasí.

Chcete-li změnit mapu, kliknutím na zelené tlačítko se znaménkem +mapu přiblížíte, kliknutím na zelené tlačítko se znaménkem – mapu oddálíte a kliknutím na zelené šipky přejdete na sousední mapy.


METAR-TAF: